createdAt,value
2023-02-14T00:01:33.119Z,19.30
2023-02-14T00:04:01.700Z,20.07
2023-02-14T00:06:32.667Z,20.13
2023-02-14T00:09:01.117Z,20.47
2023-02-14T00:11:29.848Z,19.00
2023-02-14T00:14:15.588Z,21.37
2023-02-14T00:16:45.176Z,20.47
2023-02-14T00:19:14.601Z,19.00
2023-02-14T00:21:43.270Z,18.80
2023-02-14T00:24:13.125Z,17.37
2023-02-14T00:26:41.585Z,18.93
2023-02-14T00:29:11.755Z,17.23
2023-02-14T00:31:40.244Z,17.20
2023-02-14T00:34:10.945Z,18.10
2023-02-14T00:36:39.690Z,17.50
2023-02-14T00:39:09.729Z,19.00
2023-02-14T00:41:37.707Z,18.17
2023-02-14T00:44:06.265Z,18.50
2023-02-14T00:46:34.662Z,17.10
2023-02-14T00:49:02.920Z,18.83
2023-02-14T00:51:32.531Z,17.07
2023-02-14T00:54:00.527Z,16.27
2023-02-14T00:56:28.509Z,18.50
2023-02-14T00:58:56.656Z,18.40
2023-02-14T01:01:24.850Z,18.20
2023-02-14T01:03:52.837Z,17.60
2023-02-14T01:06:20.843Z,15.97
2023-02-14T01:08:50.180Z,18.60
2023-02-14T01:11:20.994Z,18.27
2023-02-14T01:13:50.605Z,16.80
2023-02-14T01:16:20.621Z,17.20
2023-02-14T01:18:48.872Z,17.13
2023-02-14T01:21:19.416Z,19.57
2023-02-14T01:23:49.327Z,18.27
2023-02-14T01:26:19.333Z,19.27
2023-02-14T01:28:48.129Z,18.63
2023-02-14T01:31:18.084Z,18.70
2023-02-14T01:33:48.105Z,19.80
2023-02-14T01:36:18.152Z,18.00
2023-02-14T01:38:46.437Z,17.97
2023-02-14T01:41:14.953Z,20.10
2023-02-14T01:43:59.896Z,17.13
2023-02-14T01:46:29.878Z,18.40
2023-02-14T01:49:04.427Z,16.17
2023-02-14T01:51:33.780Z,19.20
2023-02-14T01:54:02.940Z,17.10
2023-02-14T01:56:36.931Z,18.20
2023-02-14T01:59:09.999Z,17.90
2023-02-14T02:01:38.242Z,18.57
2023-02-14T02:04:10.128Z,16.90
2023-02-14T02:06:41.256Z,18.03
2023-02-14T02:09:15.015Z,17.30
2023-02-14T02:11:43.924Z,18.70
2023-02-14T02:14:17.062Z,18.27
2023-02-14T02:17:08.008Z,17.60
2023-02-14T02:20:26.463Z,17.47
2023-02-14T02:23:26.567Z,18.47
2023-02-14T02:26:30.179Z,17.97
2023-02-14T02:29:40.910Z,19.30
2023-02-14T02:33:03.579Z,19.37
2023-02-14T02:36:02.569Z,19.67
2023-02-14T02:38:46.588Z,17.83
2023-02-14T02:41:24.730Z,19.00
2023-02-14T02:44:02.311Z,18.73
2023-02-14T02:46:49.482Z,16.80
2023-02-14T02:49:50.238Z,18.97
2023-02-14T02:52:44.803Z,17.50
2023-02-14T02:55:17.876Z,19.00
2023-02-14T02:57:47.539Z,19.43
2023-02-14T03:00:17.253Z,19.90
2023-02-14T03:03:06.689Z,21.53
2023-02-14T03:05:36.359Z,19.97
2023-02-14T03:08:06.276Z,18.43
2023-02-14T03:10:39.020Z,17.60
2023-02-14T03:13:44.099Z,20.17
2023-02-14T03:16:28.237Z,18.70
2023-02-14T03:19:51.775Z,18.47
2023-02-14T03:22:25.279Z,18.80
2023-02-14T03:24:58.364Z,17.53
2023-02-14T03:27:31.492Z,18.40
2023-02-14T03:30:09.024Z,17.40
2023-02-14T03:32:42.145Z,19.47
2023-02-14T03:35:17.101Z,20.10
2023-02-14T03:37:50.868Z,18.27
2023-02-14T03:40:26.138Z,19.60
2023-02-14T03:42:58.482Z,18.90
2023-02-14T03:45:31.265Z,20.07
2023-02-14T03:48:04.665Z,18.10
2023-02-14T03:50:34.167Z,18.57
2023-02-14T03:53:04.110Z,19.97
2023-02-14T03:55:38.828Z,17.90
2023-02-14T03:58:12.536Z,19.90
2023-02-14T04:00:43.007Z,20.87
2023-02-14T04:03:15.251Z,20.30
2023-02-14T04:05:46.665Z,19.80
2023-02-14T04:08:22.568Z,19.33
2023-02-14T04:10:52.550Z,19.73
2023-02-14T04:13:20.773Z,19.93
2023-02-14T04:15:48.951Z,19.33
2023-02-14T04:18:30.903Z,18.40
2023-02-14T04:20:59.189Z,19.50
2023-02-14T04:23:27.348Z,22.47
2023-02-14T04:25:56.713Z,23.70
2023-02-14T04:28:24.755Z,21.33
2023-02-14T04:30:52.730Z,24.23
2023-02-14T04:33:20.799Z,23.20
2023-02-14T04:35:49.674Z,23.27
2023-02-14T04:38:17.695Z,23.80
2023-02-14T04:40:45.689Z,22.57
2023-02-14T04:43:15.022Z,21.43
2023-02-14T04:45:43.089Z,21.67
2023-02-14T04:48:11.115Z,21.10
2023-02-14T04:50:39.106Z,22.53
2023-02-14T04:53:07.096Z,19.47
2023-02-14T04:55:35.196Z,20.87
2023-02-14T04:58:03.218Z,19.80
2023-02-14T05:00:32.585Z,21.80
2023-02-14T05:03:00.694Z,21.20
2023-02-14T05:05:28.763Z,22.80
2023-02-14T05:07:56.773Z,22.63
2023-02-14T05:10:24.805Z,23.53
2023-02-14T05:12:52.924Z,23.27
2023-02-14T05:15:20.880Z,22.43
2023-02-14T05:17:50.256Z,22.00
2023-02-14T05:20:18.561Z,24.17
2023-02-14T05:22:46.614Z,21.47
2023-02-14T05:25:14.618Z,24.53
2023-02-14T05:27:42.621Z,22.27
2023-02-14T05:30:11.946Z,22.63
2023-02-14T05:32:40.088Z,22.50
2023-02-14T05:35:09.602Z,22.47
2023-02-14T05:37:37.618Z,23.00
2023-02-14T05:40:07.428Z,23.00
2023-02-14T05:42:35.507Z,24.30
2023-02-14T05:45:03.635Z,22.70
2023-02-14T05:47:31.777Z,23.57
2023-02-14T05:49:59.771Z,23.50
2023-02-14T05:52:29.175Z,23.30
2023-02-14T05:54:57.222Z,26.10
2023-02-14T05:57:25.195Z,24.00
2023-02-14T05:59:53.223Z,23.40
2023-02-14T06:02:21.260Z,26.97
2023-02-14T06:04:49.545Z,24.47
2023-02-14T06:07:17.726Z,23.93
2023-02-14T06:09:47.523Z,25.20
2023-02-14T06:12:15.542Z,24.60
2023-02-14T06:14:45.044Z,25.00
2023-02-14T06:17:13.435Z,23.13
2023-02-14T06:19:42.450Z,22.77
2023-02-14T06:22:10.498Z,25.10
2023-02-14T06:24:38.592Z,26.23
2023-02-14T06:27:07.989Z,24.17
2023-02-14T06:29:35.960Z,24.90
2023-02-14T06:32:06.768Z,24.47
2023-02-14T06:34:35.252Z,26.77
2023-02-14T06:37:03.316Z,23.97
2023-02-14T06:39:31.327Z,23.73
2023-02-14T06:41:59.395Z,24.27
2023-02-14T06:44:28.809Z,23.63
2023-02-14T06:46:56.861Z,25.43
2023-02-14T06:49:25.000Z,25.57
2023-02-14T06:51:53.014Z,25.77
2023-02-14T06:54:21.087Z,23.50
2023-02-14T06:56:49.059Z,25.20
2023-02-14T06:59:17.121Z,23.03
2023-02-14T07:01:46.585Z,23.60
2023-02-14T07:04:14.682Z,23.70
2023-02-14T07:06:42.712Z,24.80
2023-02-14T07:09:10.707Z,22.30
2023-02-14T07:11:38.784Z,22.37
2023-02-14T07:14:06.716Z,22.50
2023-02-14T07:16:34.741Z,24.50
2023-02-14T07:19:04.234Z,23.10
2023-02-14T07:21:32.309Z,24.37
2023-02-14T07:24:00.291Z,22.20
2023-02-14T07:26:28.322Z,22.70
2023-02-14T07:28:56.294Z,22.80
2023-02-14T07:31:24.530Z,22.67
2023-02-14T07:33:53.242Z,22.80
2023-02-14T07:36:22.941Z,25.40
2023-02-14T07:38:50.943Z,24.07
2023-02-14T07:41:19.039Z,22.90
2023-02-14T07:43:47.020Z,21.43
2023-02-14T07:46:15.132Z,20.73
2023-02-14T07:48:43.173Z,21.87
2023-02-14T07:51:11.324Z,21.40
2023-02-14T07:53:41.208Z,21.37
2023-02-14T07:56:09.173Z,22.20
2023-02-14T07:58:37.171Z,21.00
2023-02-14T08:01:05.326Z,20.43
2023-02-14T08:03:33.274Z,20.07
2023-02-14T08:06:01.271Z,21.73
2023-02-14T08:08:31.794Z,21.53
2023-02-14T08:11:01.504Z,22.50
2023-02-14T08:13:29.635Z,20.67
2023-02-14T08:16:06.674Z,22.03
2023-02-14T08:18:36.725Z,20.70
2023-02-14T08:21:05.273Z,19.77
2023-02-14T08:23:33.777Z,18.37
2023-02-14T08:26:03.629Z,18.03
2023-02-14T08:28:33.006Z,18.50
2023-02-14T08:31:01.514Z,19.60
2023-02-14T08:33:29.841Z,19.03
2023-02-14T08:35:57.831Z,19.10
2023-02-14T08:38:26.064Z,19.70
2023-02-14T08:40:54.096Z,20.50
2023-02-14T08:43:23.460Z,20.60
2023-02-14T08:45:53.927Z,18.70
2023-02-14T08:48:23.493Z,19.80
2023-02-14T08:50:51.510Z,21.30
2023-02-14T08:53:19.764Z,18.80
2023-02-14T08:55:47.710Z,18.17
2023-02-14T08:58:16.296Z,20.90
2023-02-14T09:00:45.625Z,18.20
2023-02-14T09:03:13.629Z,20.00
2023-02-14T09:05:41.589Z,18.53
2023-02-14T09:08:09.599Z,18.87
2023-02-14T09:10:37.929Z,19.27
2023-02-14T09:13:05.982Z,18.60
2023-02-14T09:15:34.550Z,19.00
2023-02-14T09:18:03.912Z,21.43
2023-02-14T09:20:31.920Z,17.93
2023-02-14T09:22:59.834Z,17.50
2023-02-14T09:25:27.825Z,18.07
2023-02-14T09:27:55.769Z,18.00
2023-02-14T09:30:23.805Z,17.70
2023-02-14T09:32:53.755Z,18.57
2023-02-14T09:35:23.150Z,16.97
2023-02-14T09:38:08.778Z,17.87
2023-02-14T09:40:36.737Z,17.03
2023-02-14T09:43:12.736Z,17.10
2023-02-14T09:45:41.830Z,17.60
2023-02-14T09:48:15.555Z,17.43
2023-02-14T09:50:49.774Z,16.73
2023-02-14T09:53:26.076Z,16.30
2023-02-14T09:56:02.720Z,16.13
2023-02-14T09:58:37.191Z,18.43
2023-02-14T10:01:16.130Z,17.33
2023-02-14T10:03:59.084Z,16.97
2023-02-14T10:06:50.067Z,17.40
2023-02-14T10:09:54.710Z,16.40
2023-02-14T10:12:27.401Z,17.07
2023-02-14T10:14:57.892Z,16.93
2023-02-14T10:17:34.350Z,16.93
2023-02-14T10:20:05.752Z,15.97
2023-02-14T10:22:42.685Z,17.00
2023-02-14T10:25:20.874Z,18.10
2023-02-14T10:27:49.783Z,15.20
2023-02-14T10:30:20.366Z,16.47
2023-02-14T10:32:50.284Z,16.57
2023-02-14T10:35:26.934Z,16.90
2023-02-14T10:38:06.408Z,17.00
2023-02-14T10:40:50.108Z,16.17
2023-02-14T10:43:30.060Z,17.00
2023-02-14T10:46:07.775Z,15.90
2023-02-14T10:48:44.164Z,16.37
2023-02-14T10:51:20.220Z,15.90
2023-02-14T10:53:58.378Z,16.23
2023-02-14T10:56:33.444Z,15.67
2023-02-14T10:59:19.612Z,16.40
2023-02-14T11:01:49.674Z,15.77
2023-02-14T11:04:19.323Z,15.30
2023-02-14T11:06:49.163Z,15.97
2023-02-14T11:09:19.406Z,14.97
2023-02-14T11:11:52.198Z,14.67
2023-02-14T11:14:23.545Z,16.93
2023-02-14T11:16:52.621Z,13.83
2023-02-14T11:19:23.472Z,14.20
2023-02-14T11:21:52.739Z,15.30
2023-02-14T11:24:30.239Z,15.10
2023-02-14T11:27:01.112Z,14.20
2023-02-14T11:29:31.632Z,14.67
2023-02-14T11:32:09.214Z,15.77
2023-02-14T11:34:40.175Z,16.00
2023-02-14T11:37:25.918Z,15.00
2023-02-14T11:39:57.222Z,14.83
2023-02-14T11:42:39.508Z,15.00
2023-02-14T11:45:08.605Z,15.10
2023-02-14T11:47:41.501Z,14.97
2023-02-14T11:50:23.312Z,15.53
2023-02-14T11:52:53.450Z,14.40
2023-02-14T11:55:29.292Z,14.70
2023-02-14T11:57:58.566Z,14.20
2023-02-14T12:00:27.826Z,13.67
2023-02-14T12:02:57.932Z,15.00
2023-02-14T12:05:30.236Z,15.27
2023-02-14T12:07:59.915Z,14.10
2023-02-14T12:10:30.965Z,16.27
2023-02-14T12:13:04.747Z,13.87
2023-02-14T12:15:36.810Z,14.43
2023-02-14T12:18:25.744Z,14.63
2023-02-14T12:20:57.597Z,13.57
2023-02-14T12:23:31.891Z,14.13
2023-02-14T12:26:05.690Z,12.53
2023-02-14T12:28:50.637Z,15.30
2023-02-14T12:31:19.704Z,14.30
2023-02-14T12:33:50.216Z,13.00
2023-02-14T12:36:33.554Z,13.23
2023-02-14T12:39:10.903Z,13.67
2023-02-14T12:41:49.543Z,14.53
2023-02-14T12:44:24.506Z,13.43
2023-02-14T12:47:13.113Z,13.10
2023-02-14T12:50:10.743Z,13.57
2023-02-14T12:52:52.628Z,13.37
2023-02-14T12:55:35.366Z,13.27
2023-02-14T12:58:19.445Z,13.00
2023-02-14T13:00:58.009Z,13.93
2023-02-14T13:03:51.681Z,14.20
2023-02-14T13:06:28.830Z,13.80
2023-02-14T13:09:11.367Z,13.40
2023-02-14T13:11:49.654Z,13.90
2023-02-14T13:14:35.618Z,14.60
2023-02-14T13:17:08.726Z,13.73
2023-02-14T13:19:45.312Z,15.60
2023-02-14T13:22:17.493Z,14.03
2023-02-14T13:24:49.014Z,15.07
2023-02-14T13:27:22.442Z,13.97
2023-02-14T13:29:54.010Z,13.50
2023-02-14T13:32:27.396Z,13.70
2023-02-14T13:34:56.705Z,15.40
2023-02-14T13:37:28.274Z,15.20
2023-02-14T13:39:59.657Z,14.10
2023-02-14T13:42:53.739Z,14.73
2023-02-14T13:46:05.004Z,14.33
2023-02-14T13:48:34.486Z,15.20
2023-02-14T13:51:04.600Z,14.70
2023-02-14T13:53:38.923Z,14.40
2023-02-14T13:56:23.095Z,14.97
2023-02-14T13:58:54.025Z,14.60
2023-02-14T14:01:36.813Z,15.97
2023-02-14T14:04:27.719Z,15.23
2023-02-14T14:07:32.394Z,15.60
2023-02-14T14:10:03.224Z,14.23
2023-02-14T14:12:45.322Z,15.03
2023-02-14T14:15:21.755Z,13.10
2023-02-14T14:18:06.189Z,14.87
2023-02-14T14:20:46.309Z,15.63
2023-02-14T14:23:32.751Z,16.00
2023-02-14T14:26:02.159Z,15.47
2023-02-14T14:28:33.231Z,15.97
2023-02-14T14:31:01.650Z,15.33
2023-02-14T14:33:32.395Z,15.53
2023-02-14T14:36:07.365Z,15.20
2023-02-14T14:38:46.526Z,16.00
2023-02-14T14:41:14.588Z,16.70
2023-02-14T14:43:42.939Z,16.23
2023-02-14T14:46:14.309Z,15.60
2023-02-14T14:48:46.425Z,16.13
2023-02-14T14:51:23.694Z,15.00
2023-02-14T14:53:55.594Z,15.60
2023-02-14T14:56:25.735Z,15.27
2023-02-14T14:58:54.349Z,15.17
2023-02-14T15:01:32.711Z,14.63
2023-02-14T15:04:12.434Z,15.90
2023-02-14T15:06:42.253Z,14.93
2023-02-14T15:09:14.868Z,16.50
2023-02-14T15:12:06.948Z,16.67
2023-02-14T15:14:38.096Z,17.50
2023-02-14T15:17:08.196Z,17.07
2023-02-14T15:19:41.681Z,16.60
2023-02-14T15:22:21.008Z,17.07
2023-02-14T15:24:49.700Z,16.90
2023-02-14T15:27:20.242Z,18.30
2023-02-14T15:29:56.266Z,17.13
2023-02-14T15:32:26.004Z,16.77
2023-02-14T15:34:54.432Z,16.70
2023-02-14T15:37:25.305Z,16.63
2023-02-14T15:39:56.594Z,16.30
2023-02-14T15:42:27.707Z,16.03
2023-02-14T15:45:15.032Z,17.83
2023-02-14T15:47:44.724Z,16.80
2023-02-14T15:50:16.522Z,17.17
2023-02-14T15:52:46.337Z,16.27
2023-02-14T15:55:19.002Z,18.07
2023-02-14T15:57:51.034Z,16.27
2023-02-14T16:00:21.778Z,17.60
2023-02-14T16:02:53.265Z,16.50
2023-02-14T16:05:24.242Z,16.63
2023-02-14T16:08:03.556Z,16.57
2023-02-14T16:10:33.233Z,17.27
2023-02-14T16:13:04.121Z,16.20
2023-02-14T16:15:33.671Z,17.30
2023-02-14T16:18:06.935Z,17.63
2023-02-14T16:20:41.425Z,17.60
2023-02-14T16:23:19.208Z,16.47
2023-02-14T16:25:47.636Z,17.13
2023-02-14T16:28:16.450Z,16.63
2023-02-14T16:30:47.712Z,17.27
2023-02-14T16:33:21.104Z,16.87
2023-02-14T16:35:49.893Z,17.30
2023-02-14T16:38:20.958Z,16.47
2023-02-14T16:40:51.082Z,16.80
2023-02-14T16:43:20.578Z,19.00
2023-02-14T16:45:49.244Z,16.80
2023-02-14T16:48:17.264Z,17.20
2023-02-14T16:50:46.279Z,16.00
2023-02-14T16:53:23.795Z,17.40
2023-02-14T16:55:54.089Z,16.30
2023-02-14T16:58:24.061Z,17.27
2023-02-14T17:00:52.038Z,16.87
2023-02-14T17:03:20.039Z,18.73
2023-02-14T17:05:48.141Z,17.67
2023-02-14T17:08:17.274Z,17.70
2023-02-14T17:10:48.491Z,18.10
2023-02-14T17:13:18.846Z,17.90
2023-02-14T17:15:46.862Z,17.50
2023-02-14T17:18:18.113Z,18.67
2023-02-14T17:20:46.198Z,19.47
2023-02-14T17:23:14.173Z,18.40
2023-02-14T17:25:42.339Z,17.27
2023-02-14T17:28:11.911Z,18.80
2023-02-14T17:30:40.314Z,19.43
2023-02-14T17:33:08.495Z,20.10
2023-02-14T17:35:37.402Z,20.50
2023-02-14T17:38:05.702Z,20.63
2023-02-14T17:40:33.786Z,19.67
2023-02-14T17:43:01.958Z,20.30
2023-02-14T17:45:31.647Z,20.37
2023-02-14T17:47:59.643Z,18.60
2023-02-14T17:50:27.610Z,20.57
2023-02-14T17:52:56.544Z,19.70
2023-02-14T17:55:25.050Z,19.93
2023-02-14T17:57:53.273Z,17.57
2023-02-14T18:00:22.363Z,18.20
2023-02-14T18:02:51.749Z,19.23
2023-02-14T18:05:20.069Z,19.27
2023-02-14T18:07:47.993Z,19.20
2023-02-14T18:10:15.928Z,18.33
2023-02-14T18:12:43.849Z,20.10
2023-02-14T18:15:11.784Z,18.83
2023-02-14T18:17:39.699Z,19.83
2023-02-14T18:20:10.088Z,20.53
2023-02-14T18:22:38.046Z,20.50
2023-02-14T18:25:07.527Z,21.17
2023-02-14T18:27:35.566Z,20.70
2023-02-14T18:30:03.486Z,19.80
2023-02-14T18:32:31.767Z,19.47
2023-02-14T18:35:00.453Z,19.67
2023-02-14T18:37:29.818Z,20.60
2023-02-14T18:39:57.821Z,19.67
2023-02-14T18:42:25.812Z,22.67
2023-02-14T18:44:53.747Z,20.83
2023-02-14T18:47:21.690Z,21.23
2023-02-14T18:49:49.625Z,22.30
2023-02-14T18:52:17.635Z,22.63
2023-02-14T18:54:46.941Z,23.03
2023-02-14T18:57:14.942Z,25.67
2023-02-14T18:59:43.088Z,23.53
2023-02-14T19:02:11.239Z,25.30
2023-02-14T19:04:39.220Z,23.43
2023-02-14T19:07:07.208Z,24.70
2023-02-14T19:09:39.433Z,25.40
2023-02-14T19:12:09.525Z,26.90
2023-02-14T19:14:38.039Z,23.60
2023-02-14T19:17:06.383Z,24.80
2023-02-14T19:19:34.643Z,24.10
2023-02-14T19:22:03.082Z,23.80
2023-02-14T19:24:31.117Z,24.97
2023-02-14T19:26:59.130Z,25.73
2023-02-14T19:29:28.425Z,24.93
2023-02-14T19:31:56.593Z,25.00
2023-02-14T19:34:29.201Z,27.13
2023-02-14T19:37:02.386Z,25.73
2023-02-14T19:39:31.635Z,25.10
2023-02-14T19:42:01.664Z,26.77
2023-02-14T19:44:32.394Z,27.17
2023-02-14T19:47:09.766Z,25.07
2023-02-14T19:49:43.933Z,26.27
2023-02-14T19:52:25.790Z,25.67
2023-02-14T19:54:55.384Z,26.30
2023-02-14T19:57:24.875Z,26.13
2023-02-14T20:00:08.500Z,25.17
2023-02-14T20:02:44.230Z,26.50
2023-02-14T20:05:16.760Z,26.10
2023-02-14T20:07:49.278Z,28.80
2023-02-14T20:10:17.500Z,26.47
2023-02-14T20:12:45.536Z,29.53
2023-02-14T20:15:17.380Z,27.73
2023-02-14T20:17:51.852Z,27.67
2023-02-14T20:20:21.435Z,27.03
2023-02-14T20:22:51.623Z,26.80
2023-02-14T20:25:21.021Z,26.30
2023-02-14T20:27:50.287Z,26.23
2023-02-14T20:30:22.418Z,27.03
2023-02-14T20:32:53.462Z,30.70
2023-02-14T20:35:24.764Z,26.93
2023-02-14T20:38:07.534Z,26.70
2023-02-14T20:40:45.823Z,26.47
2023-02-14T20:43:13.851Z,26.50
2023-02-14T20:45:47.907Z,24.70
2023-02-14T20:48:19.016Z,25.53
2023-02-14T20:50:51.464Z,25.90
2023-02-14T20:53:19.760Z,26.67
2023-02-14T20:55:50.828Z,25.00
2023-02-14T20:58:19.320Z,24.30
2023-02-14T21:00:56.392Z,25.83
2023-02-14T21:03:24.909Z,27.40
2023-02-14T21:05:53.055Z,25.03
2023-02-14T21:08:21.065Z,24.87
2023-02-14T21:10:49.079Z,23.60
2023-02-14T21:13:17.144Z,25.20
2023-02-14T21:15:45.208Z,24.70
2023-02-14T21:18:15.175Z,26.53
2023-02-14T21:20:43.344Z,26.27
2023-02-14T21:23:11.787Z,24.50
2023-02-14T21:25:40.854Z,27.50
2023-02-14T21:28:08.901Z,24.47
2023-02-14T21:30:37.200Z,24.90
2023-02-14T21:33:05.486Z,25.40
2023-02-14T21:35:38.262Z,24.90
2023-02-14T21:38:06.328Z,24.50
2023-02-14T21:40:34.412Z,28.30
2023-02-14T21:43:02.417Z,27.27
2023-02-14T21:45:47.742Z,28.17
2023-02-14T21:48:33.218Z,26.43
2023-02-14T21:51:06.837Z,25.93
2023-02-14T21:54:00.828Z,25.60
2023-02-14T21:56:30.204Z,26.27
2023-02-14T21:58:58.502Z,27.07
2023-02-14T22:01:28.439Z,24.67
2023-02-14T22:03:57.352Z,25.97
2023-02-14T22:06:28.165Z,26.37
2023-02-14T22:08:57.736Z,26.87
2023-02-14T22:11:27.875Z,27.47
2023-02-14T22:13:56.284Z,26.10
2023-02-14T22:16:25.737Z,24.63
2023-02-14T22:18:53.762Z,27.90
2023-02-14T22:21:24.090Z,27.97
2023-02-14T22:23:54.045Z,26.93
2023-02-14T22:26:23.725Z,27.90
2023-02-14T22:28:53.882Z,27.67
2023-02-14T22:31:22.090Z,30.07
2023-02-14T22:33:50.455Z,28.77
2023-02-14T22:36:19.121Z,31.40
2023-02-14T22:38:47.369Z,32.33
2023-02-14T22:41:19.603Z,27.57
2023-02-14T22:43:47.922Z,27.57
2023-02-14T22:46:19.364Z,28.97
2023-02-14T22:48:48.042Z,31.13
2023-02-14T22:51:21.109Z,27.53
2023-02-14T22:53:49.739Z,26.37
2023-02-14T22:56:21.225Z,25.03
2023-02-14T22:58:49.382Z,26.70
2023-02-14T23:01:19.835Z,25.10
2023-02-14T23:03:48.821Z,27.00
2023-02-14T23:06:17.020Z,26.13
2023-02-14T23:08:47.240Z,26.63
2023-02-14T23:11:16.960Z,27.70
2023-02-14T23:14:04.284Z,25.30
2023-02-14T23:16:50.401Z,26.97
2023-02-14T23:19:38.072Z,26.47
2023-02-14T23:22:08.632Z,25.63
2023-02-14T23:24:36.598Z,26.80
2023-02-14T23:27:05.372Z,27.43
2023-02-14T23:29:34.881Z,28.57
2023-02-14T23:32:02.940Z,25.80
2023-02-14T23:34:33.804Z,28.20
2023-02-14T23:37:02.470Z,26.77
2023-02-14T23:39:32.574Z,27.23
2023-02-14T23:42:00.524Z,28.73
2023-02-14T23:44:30.498Z,28.10
2023-02-14T23:47:01.646Z,26.60
2023-02-14T23:49:29.594Z,25.50
2023-02-14T23:51:57.658Z,28.73
2023-02-14T23:54:26.253Z,27.97
2023-02-14T23:56:54.534Z,29.10
2023-02-14T23:59:23.292Z,25.70
